Time;durP1;ratioP1;P1;durP2;ratioP2;P2;SDS_P1;SDS_P2;PMS_P1;PMS_P2;Temp;Humidity;BMP_temperature;BMP_pressure;BME280_temperature;BME280_humidity;BME280_pressure;Samples;Min_cycle;Max_cycle;Signal;HPM_P1;HPM_P2
2021/01/24 00:02:18;;;;;;;1.70;1.60;;;4.20;95.00;;;;;;4752755;30;20410;-79
2021/01/24 00:04:45;;;;;;;2.15;1.48;;;4.20;94.90;;;;;;4751005;30;20253;-80
2021/01/24 00:07:11;;;;;;;2.08;1.90;;;4.20;94.90;;;;;;4750755;30;20251;-79
2021/01/24 00:10:13;;;;;;;1.50;1.40;;;4.30;94.90;;;;;;4786088;29;20243;-77
2021/01/24 00:12:41;;;;;;;1.65;1.55;;;4.20;94.70;;;;;;4766650;29;20597;-78
2021/01/24 00:15:08;;;;;;;1.90;1.70;;;4.30;95.00;;;;;;4803755;29;20215;-79
2021/01/24 00:17:35;;;;;;;1.83;1.73;;;4.30;94.70;;;;;;4805980;29;20438;-79
2021/01/24 00:20:02;;;;;;;1.48;1.38;;;4.30;94.40;;;;;;4807494;29;20674;-79
2021/01/24 00:22:28;;;;;;;3.53;1.83;;;4.30;94.40;;;;;;4807692;29;20259;-79
2021/01/24 00:24:55;;;;;;;2.65;1.65;;;4.30;94.30;;;;;;4808515;29;20364;-79
2021/01/24 00:27:21;;;;;;;2.05;1.55;;;4.30;93.90;;;;;;4806866;29;20724;-79
2021/01/24 00:29:51;;;;;;;1.38;1.27;;;4.30;93.40;;;;;;4849978;29;20199;-77
2021/01/24 00:32:18;;;;;;;2.17;1.80;;;4.30;93.50;;;;;;4906093;29;20231;-80
2021/01/24 00:34:44;;;;;;;2.65;1.52;;;4.30;93.10;;;;;;4903613;29;20215;-78
2021/01/24 00:37:11;;;;;;;1.90;1.63;;;4.30;93.10;;;;;;4914532;29;20246;-79
2021/01/24 00:39:38;;;;;;;2.90;1.70;;;4.20;93.10;;;;;;4956680;29;20654;-78
2021/01/24 00:42:05;;;;;;;1.25;1.05;;;4.30;93.10;;;;;;4990067;28;20206;-78
2021/01/24 00:44:31;;;;;;;1.60;1.30;;;4.30;93.10;;;;;;4994474;28;20244;-79
2021/01/24 00:46:59;;;;;;;3.60;1.67;;;4.30;92.60;;;;;;4994377;28;20261;-79
2021/01/24 00:49:25;;;;;;;3.70;1.38;;;4.30;92.70;;;;;;4995019;28;20555;-78
2021/01/24 00:51:52;;;;;;;1.60;1.35;;;4.30;92.50;;;;;;4993925;28;20229;-78
2021/01/24 00:54:18;;;;;;;1.98;1.40;;;4.30;92.30;;;;;;4994483;28;20745;-77
2021/01/24 00:56:44;;;;;;;1.65;1.27;;;4.20;92.50;;;;;;4996761;28;20213;-77
2021/01/24 00:59:11;;;;;;;1.50;1.15;;;4.20;92.80;;;;;;4998110;28;20390;-80
2021/01/24 01:01:37;;;;;;;2.13;1.60;;;4.20;92.80;;;;;;4994334;28;20212;-79
2021/01/24 01:04:05;;;;;;;2.45;1.45;;;4.20;93.10;;;;;;4994172;28;20209;-80
2021/01/24 01:06:32;;;;;;;3.05;1.40;;;4.20;93.10;;;;;;4988989;28;20684;-79
2021/01/24 01:08:58;;;;;;;1.67;1.52;;;4.10;93.10;;;;;;4984893;28;20316;-78
2021/01/24 01:11:25;;;;;;;2.35;1.70;;;4.00;93.80;;;;;;4985801;28;20225;-81
2021/01/24 01:13:51;;;;;;;2.22;1.63;;;4.00;94.50;;;;;;4982111;28;20638;-80
2021/01/24 01:16:17;;;;;;;3.90;1.60;;;4.00;94.80;;;;;;4984507;28;20221;-80
2021/01/24 01:18:44;;;;;;;1.75;1.42;;;3.90;94.80;;;;;;4986138;28;20553;-77
2021/01/24 01:21:12;;;;;;;2.83;1.90;;;3.90;94.90;;;;;;4984516;28;20623;-80
2021/01/24 01:23:38;;;;;;;3.95;1.80;;;3.90;94.80;;;;;;4981674;28;20265;-78
2021/01/24 01:26:05;;;;;;;1.40;1.15;;;3.90;94.30;;;;;;4989407;28;20241;-79
2021/01/24 01:28:31;;;;;;;2.70;1.40;;;3.80;93.30;;;;;;4979958;28;20225;-79
2021/01/24 01:30:58;;;;;;;1.92;1.33;;;3.80;93.20;;;;;;4979065;28;20248;-79
2021/01/24 01:33:24;;;;;;;3.30;1.60;;;3.80;92.90;;;;;;4979854;28;20288;-78
2021/01/24 01:35:51;;;;;;;4.95;2.08;;;3.80;92.90;;;;;;4979900;28;20345;-79
2021/01/24 01:38:18;;;;;;;1.85;1.42;;;3.80;92.90;;;;;;4978121;28;20331;-79
2021/01/24 01:40:44;;;;;;;2.00;1.80;;;3.70;92.90;;;;;;4980438;28;20259;-78
2021/01/24 01:43:11;;;;;;;1.50;1.08;;;3.70;92.90;;;;;;4983046;28;20208;-80
2021/01/24 01:45:37;;;;;;;1.67;1.20;;;3.80;91.40;;;;;;4981456;28;20197;-78
2021/01/24 01:48:05;;;;;;;1.60;1.50;;;3.60;91.10;;;;;;4980300;28;20221;-79
2021/01/24 01:50:31;;;;;;;0.90;0.90;;;3.60;91.20;;;;;;4980972;28;20201;-80
2021/01/24 01:53:00;;;;;;;1.20;1.10;;;3.60;91.10;;;;;;4980445;28;20316;-80
2021/01/24 01:55:27;;;;;;;0.80;0.80;;;3.50;90.70;;;;;;4984095;28;20210;-81
2021/01/24 01:57:55;;;;;;;0.85;0.80;;;3.40;90.80;;;;;;4987110;28;20224;-79
2021/01/24 02:00:22;;;;;;;0.77;0.77;;;3.40;90.20;;;;;;4979323;28;20245;-79
2021/01/24 02:03:00;;;;;;;1.08;0.98;;;3.30;90.40;;;;;;4977926;28;20292;-79
2021/01/24 02:05:31;;;;;;;0.90;0.85;;;3.30;90.50;;;;;;4978765;28;20197;-79
2021/01/24 02:08:03;;;;;;;0.90;0.90;;;3.20;90.70;;;;;;4988565;28;20229;-78
2021/01/24 02:10:37;;;;;;;0.80;0.80;;;3.10;90.70;;;;;;4992345;28;20260;-76
2021/01/24 02:13:12;;;;;;;0.95;0.90;;;3.10;90.90;;;;;;4992907;28;20468;-78
2021/01/24 02:15:41;;;;;;;1.20;1.10;;;3.10;90.60;;;;;;4995040;28;20219;-79
2021/01/24 02:18:09;;;;;;;1.15;1.05;;;3.10;90.50;;;;;;4994474;28;20236;-78
2021/01/24 02:20:44;;;;;;;0.85;0.85;;;3.10;90.10;;;;;;4994928;28;20229;-77
2021/01/24 02:23:12;;;;;;;1.10;1.00;;;3.10;90.20;;;;;;4994775;28;20289;-80
2021/01/24 02:25:50;;;;;;;1.40;1.30;;;3.20;90.20;;;;;;4993462;28;20216;-77
2021/01/24 02:28:24;;;;;;;1.30;1.20;;;3.10;90.00;;;;;;4992284;28;20233;-76
2021/01/24 02:30:52;;;;;;;1.45;1.20;;;3.20;90.00;;;;;;4996048;28;20193;-78
2021/01/24 02:33:23;;;;;;;1.90;1.70;;;3.10;88.00;;;;;;4998028;28;20237;-76
2021/01/24 02:35:53;;;;;;;2.65;2.15;;;3.10;88.70;;;;;;4995228;28;20229;-78
2021/01/24 02:38:20;;;;;;;2.17;2.00;;;3.10;88.00;;;;;;4990646;28;20264;-79
2021/01/24 02:40:47;;;;;;;2.00;1.83;;;3.10;88.00;;;;;;4988881;28;20213;-79
2021/01/24 02:43:15;;;;;;;2.05;1.83;;;3.10;87.20;;;;;;4990716;28;20216;-79
2021/01/24 02:45:44;;;;;;;2.33;2.13;;;3.00;87.20;;;;;;4991572;28;20232;-78
2021/01/24 02:48:13;;;;;;;2.40;2.20;;;3.00;87.30;;;;;;4986500;28;20307;-78
2021/01/24 02:50:41;;;;;;;2.72;2.28;;;3.00;87.90;;;;;;4986849;28;20239;-79
2021/01/24 02:53:08;;;;;;;2.85;2.65;;;3.00;87.90;;;;;;4986564;28;20261;-78
2021/01/24 02:55:35;;;;;;;3.33;3.00;;;3.00;86.80;;;;;;4984233;28;20224;-78
2021/01/24 02:58:01;;;;;;;4.13;3.30;;;3.00;86.20;;;;;;4980169;28;20312;-78
2021/01/24 03:00:28;;;;;;;3.88;3.50;;;3.00;84.10;;;;;;4977355;28;20241;-79
2021/01/24 03:02:55;;;;;;;6.75;3.30;;;3.10;82.60;;;;;;4977288;28;20260;-79
2021/01/24 03:05:23;;;;;;;6.88;4.57;;;3.10;79.80;;;;;;4976807;28;20217;-77
2021/01/24 03:07:50;;;;;;;4.95;3.88;;;3.10;77.60;;;;;;4976719;28;20224;-77
2021/01/24 03:10:17;;;;;;;6.78;4.45;;;3.10;75.70;;;;;;4976776;28;20209;-78
2021/01/24 03:12:50;;;;;;;5.90;4.15;;;3.10;73.80;;;;;;4976663;28;20231;-78
2021/01/24 03:15:20;;;;;;;7.82;4.72;;;3.10;71.70;;;;;;4977962;28;20202;-78
2021/01/24 03:17:48;;;;;;;4.82;3.50;;;3.20;71.20;;;;;;4985382;28;20225;-79
2021/01/24 03:20:16;;;;;;;6.80;4.20;;;3.20;68.50;;;;;;4978205;28;20314;-79
2021/01/24 03:22:45;;;;;;;6.15;4.35;;;3.10;68.10;;;;;;4979977;28;20221;-78
2021/01/24 03:25:13;;;;;;;7.32;4.72;;;3.20;67.60;;;;;;4978695;28;20201;-78
2021/01/24 03:27:40;;;;;;;7.82;5.00;;;3.20;67.00;;;;;;4976002;28;20319;-79
2021/01/24 03:30:08;;;;;;;5.10;3.42;;;3.20;66.00;;;;;;4975899;28;20265;-78
2021/01/24 03:32:35;;;;;;;7.03;4.20;;;3.20;63.80;;;;;;4976119;28;20630;-78
2021/01/24 03:35:02;;;;;;;6.43;4.20;;;3.20;63.60;;;;;;4975594;28;20657;-79
2021/01/24 03:37:29;;;;;;;4.10;3.28;;;3.10;61.80;;;;;;4974342;28;20233;-79
2021/01/24 03:39:56;;;;;;;5.97;4.13;;;3.10;61.00;;;;;;4973340;28;20233;-79
2021/01/24 03:42:22;;;;;;;6.95;4.13;;;3.00;61.20;;;;;;4971944;28;20219;-78
2021/01/24 03:44:49;;;;;;;4.20;3.50;;;3.00;61.40;;;;;;4973244;28;20217;-79
2021/01/24 03:47:15;;;;;;;4.43;3.25;;;3.00;60.60;;;;;;4973789;28;20630;-78
2021/01/24 03:49:42;;;;;;;6.38;4.20;;;3.00;60.60;;;;;;4973391;28;20202;-78
2021/01/24 03:52:08;;;;;;;4.78;3.50;;;3.00;60.00;;;;;;4974115;28;20256;-78
2021/01/24 03:54:34;;;;;;;5.00;2.90;;;2.90;58.70;;;;;;4977437;28;20209;-77
2021/01/24 03:57:01;;;;;;;2.58;2.38;;;2.80;58.10;;;;;;4977788;28;20288;-78
2021/01/24 03:59:28;;;;;;;5.93;2.88;;;2.80;58.00;;;;;;4978594;28;20240;-79
2021/01/24 04:01:54;;;;;;;11.45;3.13;;;2.70;58.10;;;;;;4978929;28;20211;-78
2021/01/24 04:04:21;;;;;;;5.13;2.85;;;2.70;58.80;;;;;;4980976;28;20296;-79
2021/01/24 04:06:47;;;;;;;2.95;2.65;;;2.60;59.60;;;;;;4983038;28;20205;-79
2021/01/24 04:09:14;;;;;;;3.63;2.78;;;2.60;59.90;;;;;;4983516;28;20245;-79
2021/01/24 04:11:40;;;;;;;4.88;3.25;;;2.60;60.90;;;;;;4979097;28;20332;-78
2021/01/24 04:14:07;;;;;;;6.72;3.80;;;2.60;60.90;;;;;;4981928;28;20312;-79
2021/01/24 04:16:34;;;;;;;5.45;3.67;;;2.60;61.00;;;;;;4977112;28;20300;-79
2021/01/24 04:19:00;;;;;;;4.30;2.97;;;2.60;61.10;;;;;;4979204;28;20222;-77
2021/01/24 04:21:27;;;;;;;6.32;3.58;;;2.60;61.10;;;;;;4977951;28;20247;-77
2021/01/24 04:23:54;;;;;;;4.65;2.88;;;2.60;60.90;;;;;;4978751;28;20620;-77
2021/01/24 04:26:20;;;;;;;3.90;3.22;;;2.60;61.30;;;;;;4978016;28;20205;-79
2021/01/24 04:28:47;;;;;;;4.57;3.20;;;2.60;60.80;;;;;;4978285;28;20299;-78
2021/01/24 04:31:14;;;;;;;4.00;3.33;;;2.60;60.70;;;;;;4981009;28;20236;-79
2021/01/24 04:33:41;;;;;;;4.80;3.08;;;2.60;60.50;;;;;;4983502;28;20363;-79
2021/01/24 04:36:07;;;;;;;5.22;3.00;;;2.60;59.90;;;;;;4976828;28;20320;-79
2021/01/24 04:38:34;;;;;;;3.58;2.60;;;2.60;60.00;;;;;;4976505;28;20615;-79
2021/01/24 04:41:01;;;;;;;7.72;4.15;;;2.70;60.00;;;;;;4975574;28;20216;-78
2021/01/24 04:43:27;;;;;;;4.22;3.42;;;2.70;59.40;;;;;;4976255;28;20580;-79
2021/01/24 04:45:55;;;;;;;5.60;4.07;;;2.70;59.40;;;;;;4976505;28;20271;-78
2021/01/24 04:48:23;;;;;;;3.97;3.40;;;2.70;58.70;;;;;;4976457;28;20685;-79
2021/01/24 04:50:50;;;;;;;4.10;2.95;;;2.70;58.80;;;;;;4976053;28;20305;-79
2021/01/24 04:53:17;;;;;;;6.22;3.95;;;2.70;58.60;;;;;;4976790;28;20715;-78
2021/01/24 04:55:44;;;;;;;7.28;3.35;;;2.80;58.50;;;;;;4977237;28;20299;-78
2021/01/24 04:58:11;;;;;;;6.32;3.50;;;2.70;57.60;;;;;;4976389;28;20237;-79
2021/01/24 05:00:37;;;;;;;4.45;2.90;;;2.70;57.90;;;;;;4976515;28;20296;-78
2021/01/24 05:03:04;;;;;;;4.30;3.25;;;2.70;57.90;;;;;;4977820;28;20219;-79
2021/01/24 05:05:31;;;;;;;6.15;3.35;;;2.70;57.90;;;;;;4977736;28;20205;-80
2021/01/24 05:07:59;;;;;;;5.35;3.50;;;2.70;56.90;;;;;;4979139;28;20226;-80
2021/01/24 05:10:26;;;;;;;3.80;3.08;;;2.70;56.70;;;;;;4977961;28;20343;-78
2021/01/24 05:12:53;;;;;;;3.80;2.85;;;2.70;54.90;;;;;;4977038;28;20225;-79
2021/01/24 05:15:20;;;;;;;5.68;3.70;;;2.70;53.30;;;;;;4977625;28;20260;-79
2021/01/24 05:17:51;;;;;;;5.82;3.25;;;2.70;53.30;;;;;;4976313;28;20309;-79
2021/01/24 05:20:20;;;;;;;4.55;2.95;;;2.60;53.20;;;;;;4977538;28;20209;-78
2021/01/24 05:22:48;;;;;;;7.47;3.38;;;2.60;53.20;;;;;;4978628;28;20214;-79
2021/01/24 05:25:17;;;;;;;3.85;3.25;;;2.60;52.10;;;;;;4978245;28;20673;-79
2021/01/24 05:27:43;;;;;;;5.32;3.15;;;2.60;52.00;;;;;;4977628;28;20265;-79
2021/01/24 05:30:19;;;;;;;5.68;3.25;;;2.60;50.80;;;;;;4976164;28;20209;-80
2021/01/24 05:32:45;;;;;;;6.40;3.28;;;2.60;51.50;;;;;;4980403;28;20236;-79
2021/01/24 05:35:13;;;;;;;5.03;3.55;;;2.60;52.10;;;;;;4979696;28;20252;-79
2021/01/24 05:37:40;;;;;;;3.83;3.05;;;2.60;52.40;;;;;;4982528;28;20276;-79
2021/01/24 05:40:09;;;;;;;4.50;3.80;;;2.60;53.20;;;;;;4986092;28;20260;-78
2021/01/24 05:42:37;;;;;;;6.00;3.63;;;2.60;53.20;;;;;;4979788;28;20636;-79
2021/01/24 05:45:10;;;;;;;5.55;4.38;;;2.60;53.20;;;;;;4978588;28;20580;-78
2021/01/24 05:47:37;;;;;;;6.20;4.88;;;2.50;53.70;;;;;;4981562;28;20236;-80
2021/01/24 05:50:10;;;;;;;6.15;4.68;;;2.50;54.80;;;;;;4978369;28;20205;-78
2021/01/24 05:52:40;;;;;;;6.93;4.22;;;2.50;55.50;;;;;;4979988;28;20316;-79
2021/01/24 05:55:10;;;;;;;5.72;4.28;;;2.50;56.00;;;;;;4985240;28;20240;-78
2021/01/24 05:57:40;;;;;;;6.00;4.82;;;2.50;56.30;;;;;;4987951;28;20264;-79
2021/01/24 06:00:08;;;;;;;6.57;4.93;;;2.50;56.30;;;;;;4987137;28;20209;-79
2021/01/24 06:02:37;;;;;;;9.90;4.63;;;2.50;56.40;;;;;;4990504;28;20744;-77
2021/01/24 06:05:05;;;;;;;9.80;5.47;;;2.40;56.70;;;;;;4994475;28;20202;-79
2021/01/24 06:07:33;;;;;;;12.70;4.78;;;2.50;56.40;;;;;;4980299;28;20233;-80
2021/01/24 06:09:59;;;;;;;11.82;4.88;;;2.50;56.10;;;;;;4979513;28;20794;-78
2021/01/24 06:12:27;;;;;;;7.82;4.22;;;2.40;55.50;;;;;;4978950;28;20312;-79
2021/01/24 06:14:55;;;;;;;5.70;4.20;;;2.40;55.70;;;;;;4985755;28;20217;-78
2021/01/24 06:17:36;;;;;;;5.53;3.60;;;2.40;55.30;;;;;;4996014;28;20389;-78
2021/01/24 06:20:05;;;;;;;10.82;4.13;;;2.40;55.40;;;;;;4994000;28;20189;-76
2021/01/24 06:22:41;;;;;;;9.55;4.25;;;2.40;54.20;;;;;;4995203;28;20209;-77
2021/01/24 06:25:14;;;;;;;4.30;2.80;;;2.40;54.50;;;;;;4994911;28;20207;-78
2021/01/24 06:27:47;;;;;;;6.25;3.70;;;2.40;53.90;;;;;;4978895;28;20701;-79
2021/01/24 06:30:16;;;;;;;3.75;3.40;;;2.50;53.20;;;;;;4976936;28;20289;-77
2021/01/24 06:32:42;;;;;;;4.20;3.25;;;2.40;53.80;;;;;;4978347;28;20288;-79
2021/01/24 06:35:20;;;;;;;5.13;3.72;;;2.40;53.10;;;;;;4978605;28;20207;-79
2021/01/24 06:37:59;;;;;;;4.75;3.65;;;2.40;53.10;;;;;;4977891;28;20329;-79
2021/01/24 06:40:28;;;;;;;6.53;3.75;;;2.40;53.10;;;;;;4978239;28;20225;-79
2021/01/24 06:42:58;;;;;;;4.68;3.40;;;2.50;53.20;;;;;;4981889;28;20213;-80
2021/01/24 06:45:41;;;;;;;4.30;3.53;;;2.50;53.20;;;;;;4980865;28;20202;-79
2021/01/24 06:48:08;;;;;;;5.50;3.60;;;2.50;53.20;;;;;;4978753;28;20225;-79
2021/01/24 06:50:37;;;;;;;6.20;3.90;;;2.50;53.20;;;;;;4979669;28;20220;-79
2021/01/24 06:53:05;;;;;;;4.72;3.00;;;2.50;53.20;;;;;;4983743;28;20617;-80
2021/01/24 06:55:32;;;;;;;6.90;3.40;;;2.50;53.20;;;;;;4985152;28;20251;-78
2021/01/24 06:58:26;;;;;;;5.18;3.42;;;2.50;52.90;;;;;;4986285;28;20609;-78
2021/01/24 07:00:53;;;;;;;7.28;3.88;;;2.50;53.20;;;;;;4989306;28;20220;-80
2021/01/24 07:03:21;;;;;;;7.60;3.10;;;2.50;53.20;;;;;;4989722;28;20557;-80
2021/01/24 07:05:47;;;;;;;5.60;3.20;;;2.40;53.10;;;;;;4993144;28;20199;-78
2021/01/24 07:08:31;;;;;;;5.28;3.30;;;2.40;53.10;;;;;;4995672;28;20229;-78
2021/01/24 07:10:57;;;;;;;5.85;3.28;;;2.40;53.10;;;;;;4989360;28;20201;-78
2021/01/24 07:13:42;;;;;;;5.97;4.07;;;2.40;53.10;;;;;;4993804;28;20240;-77
2021/01/24 07:16:09;;;;;;;4.28;3.33;;;2.40;53.10;;;;;;4994533;28;20236;-78
2021/01/24 07:18:43;;;;;;;4.35;3.00;;;2.30;53.00;;;;;;4993857;28;20260;-77
2021/01/24 07:21:10;;;;;;;4.22;3.13;;;2.30;53.00;;;;;;4991919;28;20240;-78
2021/01/24 07:23:38;;;;;;;5.97;4.05;;;2.30;53.50;;;;;;4990818;28;20209;-79
2021/01/24 07:26:06;;;;;;;4.43;3.13;;;2.30;53.70;;;;;;4967978;28;20202;-78
2021/01/24 07:28:34;;;;;;;6.30;3.40;;;2.30;54.10;;;;;;4963158;28;20288;-78
2021/01/24 07:31:03;;;;;;;6.93;3.40;;;2.40;54.40;;;;;;4960005;28;20242;-80
2021/01/24 07:33:30;;;;;;;7.25;3.05;;;2.50;55.00;;;;;;4961029;29;20226;-78
2021/01/24 07:36:02;;;;;;;6.25;3.35;;;2.50;54.20;;;;;;4979907;28;20253;-79
2021/01/24 07:38:30;;;;;;;4.90;3.42;;;2.50;54.00;;;;;;4979681;28;20233;-78
2021/01/24 07:40:58;;;;;;;4.65;3.83;;;2.60;54.30;;;;;;4980400;28;20268;-79
2021/01/24 07:43:25;;;;;;;5.32;3.47;;;2.60;54.50;;;;;;4981572;28;20209;-78
2021/01/24 07:45:52;;;;;;;6.45;3.95;;;2.80;54.00;;;;;;4979294;28;20229;-79
2021/01/24 07:48:19;;;;;;;9.13;4.45;;;2.80;53.40;;;;;;4979625;28;20287;-80
2021/01/24 07:50:45;;;;;;;5.97;3.95;;;2.90;53.50;;;;;;4979887;28;20285;-78
2021/01/24 07:53:13;;;;;;;5.10;3.55;;;2.90;53.50;;;;;;4983069;28;20248;-80
2021/01/24 07:55:41;;;;;;;6.13;4.00;;;3.00;53.60;;;;;;4987444;28;20205;-80
2021/01/24 07:58:08;;;;;;;3.88;2.60;;;3.00;53.60;;;;;;4981689;28;20264;-79
2021/01/24 08:00:35;;;;;;;5.65;3.60;;;3.00;53.60;;;;;;4981879;28;20241;-78
2021/01/24 08:03:02;;;;;;;5.45;3.80;;;3.00;53.60;;;;;;4987580;28;20197;-79
2021/01/24 08:05:31;;;;;;;6.68;3.38;;;2.90;53.50;;;;;;4991862;28;20566;-77
2021/01/24 08:07:58;;;;;;;5.28;3.67;;;2.90;53.50;;;;;;4987579;28;20261;-79
2021/01/24 08:10:29;;;;;;;6.93;3.75;;;3.00;53.60;;;;;;4982353;28;20256;-80
2021/01/24 08:12:56;;;;;;;4.80;3.65;;;2.90;54.20;;;;;;4982529;28;20257;-80
2021/01/24 08:15:22;;;;;;;4.28;3.05;;;2.90;53.50;;;;;;4986980;28;20201;-79
2021/01/24 08:17:50;;;;;;;8.75;4.18;;;3.00;53.60;;;;;;4988892;28;20221;-79
2021/01/24 08:20:17;;;;;;;4.40;3.75;;;3.00;53.60;;;;;;4988255;28;20227;-80
2021/01/24 08:22:45;;;;;;;6.00;3.55;;;3.00;53.60;;;;;;4992107;28;20208;-79
2021/01/24 08:25:13;;;;;;;6.00;3.78;;;3.10;53.70;;;;;;4992386;28;20249;-78
2021/01/24 08:27:39;;;;;;;5.95;3.45;;;3.10;53.70;;;;;;4987500;28;20324;-80
2021/01/24 08:30:07;;;;;;;6.10;3.60;;;3.10;53.70;;;;;;4988415;28;20315;-76
2021/01/24 08:32:34;;;;;;;5.15;3.40;;;3.00;53.60;;;;;;4986495;28;20225;-80
2021/01/24 08:35:00;;;;;;;4.70;3.40;;;3.00;53.60;;;;;;4975284;28;20302;-79
2021/01/24 08:37:27;;;;;;;6.97;3.67;;;3.00;54.10;;;;;;4979100;28;20268;-80
2021/01/24 08:39:55;;;;;;;6.60;3.50;;;3.10;53.70;;;;;;4980200;28;20221;-79
2021/01/24 08:42:21;;;;;;;4.97;3.60;;;3.00;53.60;;;;;;4980161;28;20208;-78
2021/01/24 08:44:58;;;;;;;4.80;3.45;;;3.10;53.70;;;;;;4980251;28;20689;-79
2021/01/24 08:47:24;;;;;;;4.60;3.15;;;3.10;54.10;;;;;;4961469;28;20260;-79
2021/01/24 08:50:07;;;;;;;4.18;3.55;;;3.20;53.80;;;;;;4965257;29;20700;-78
2021/01/24 08:53:11;;;;;;;4.82;3.60;;;3.10;53.70;;;;;;4967675;28;20246;-78
2021/01/24 08:55:48;;;;;;;4.63;3.08;;;3.10;53.70;;;;;;4915521;28;20269;-79
2021/01/24 08:58:23;;;;;;;5.15;3.42;;;3.20;53.80;;;;;;4977913;28;20247;-80
2021/01/24 09:01:02;;;;;;;4.18;3.42;;;3.20;53.80;;;;;;4978855;28;20261;-79
2021/01/24 09:03:29;;;;;;;4.03;2.97;;;3.10;53.90;;;;;;4978757;28;20277;-79
2021/01/24 09:06:12;;;;;;;3.88;3.35;;;3.20;53.80;;;;;;4978950;28;20212;-78
2021/01/24 09:08:45;;;;;;;6.88;3.50;;;3.10;53.70;;;;;;4978936;28;20311;-79
2021/01/24 09:14:28;;;;;;;10.50;4.18;;;3.10;53.70;;;;;;4939855;29;20214;-79
2021/01/24 09:23:12;;;;;;;5.75;4.07;;;3.20;53.80;;;;;;4844112;29;20224;-80
2021/01/24 09:25:38;;;;;;;7.63;3.63;;;3.10;53.70;;;;;;4849270;29;20265;-79
2021/01/24 09:34:26;;;;;;;3.90;3.33;;;3.10;53.70;;;;;;4858076;29;20680;-78
2021/01/24 09:37:02;;;;;;;4.35;3.67;;;3.10;53.70;;;;;;4860751;29;20218;-78
2021/01/24 09:39:31;;;;;;;4.55;3.72;;;3.10;53.70;;;;;;4820235;29;20333;-77
2021/01/24 09:41:57;;;;;;;5.80;2.80;;;3.20;53.80;;;;;;4823015;29;20230;-78
2021/01/24 09:44:24;;;;;;;5.45;3.00;;;3.20;53.10;;;;;;4857916;29;20228;-77
2021/01/24 09:47:38;;;;;;;4.88;3.35;;;3.30;51.80;;;;;;4900178;29;20212;-77
2021/01/24 09:50:07;;;;;;;3.55;2.65;;;3.30;52.10;;;;;;4869757;29;20351;-79
2021/01/24 09:52:33;;;;;;;3.15;2.85;;;3.40;51.50;;;;;;4894521;29;20303;-78
2021/01/24 09:54:59;;;;;;;3.40;2.40;;;3.40;51.10;;;;;;4896858;29;20232;-78
2021/01/24 09:57:26;;;;;;;3.65;2.90;;;3.40;50.90;;;;;;4897920;29;20252;-78
2021/01/24 10:03:43;;;;;;;3.67;2.97;;;3.50;50.80;;;;;;4876925;29;20253;-78
2021/01/24 10:06:13;;;;;;;3.60;2.67;;;3.50;49.80;;;;;;4875079;29;20240;-77
2021/01/24 10:08:39;;;;;;;6.10;2.65;;;3.60;49.80;;;;;;4881785;29;20209;-77
2021/01/24 10:11:06;;;;;;;4.75;3.15;;;3.60;49.40;;;;;;4892077;29;20233;-79
2021/01/24 10:13:32;;;;;;;4.03;2.78;;;3.50;49.30;;;;;;4873709;29;20406;-79
2021/01/24 10:16:03;;;;;;;6.60;2.90;;;3.60;49.40;;;;;;4862941;29;20212;-77
2021/01/24 10:22:03;;;;;;;3.90;2.70;;;3.60;49.00;;;;;;4862375;29;20223;-77
2021/01/24 10:24:29;;;;;;;6.53;2.90;;;3.80;48.20;;;;;;4860628;29;20300;-78
2021/01/24 10:26:55;;;;;;;2.83;2.40;;;3.70;47.90;;;;;;4877166;29;20223;-78
2021/01/24 10:29:22;;;;;;;3.75;2.78;;;3.70;47.80;;;;;;4896835;29;20262;-79
2021/01/24 10:38:49;;;;;;;2.45;2.22;;;3.80;46.80;;;;;;4806561;29;20276;-78
2021/01/24 10:41:15;;;;;;;3.40;2.25;;;3.80;45.80;;;;;;4864028;29;20296;-79
2021/01/24 10:43:42;;;;;;;3.90;2.67;;;3.80;46.10;;;;;;4883275;29;20288;-79
2021/01/24 10:46:08;;;;;;;6.72;2.80;;;3.80;45.80;;;;;;4881976;29;20200;-78
2021/01/24 10:48:35;;;;;;;2.50;2.30;;;3.80;45.70;;;;;;4889292;29;20284;-79
2021/01/24 10:51:02;;;;;;;5.47;2.72;;;3.80;44.80;;;;;;4885652;29;20349;-79
2021/01/24 10:53:28;;;;;;;6.70;3.30;;;3.90;46.10;;;;;;4884290;29;20228;-80
2021/01/24 10:56:02;;;;;;;4.07;2.70;;;3.90;45.50;;;;;;4891625;29;20249;-79
2021/01/24 10:58:28;;;;;;;3.13;1.88;;;3.90;45.40;;;;;;4883243;29;20352;-79
2021/01/24 11:05:19;;;;;;;3.58;2.63;;;3.80;44.80;;;;;;4830076;29;20241;-78
2021/01/24 11:07:46;;;;;;;3.63;2.53;;;3.80;45.10;;;;;;4846322;29;20272;-77
2021/01/24 11:10:13;;;;;;;4.05;2.55;;;3.90;45.30;;;;;;4877633;29;20260;-79
2021/01/24 11:12:51;;;;;;;3.42;2.28;;;3.90;44.90;;;;;;4879094;29;20383;-77
2021/01/24 11:18:13;;;;;;;3.90;2.25;;;3.90;43.50;;;;;;4836137;29;20285;-80
2021/01/24 11:20:45;;;;;;;4.18;2.42;;;3.90;42.90;;;;;;4859096;29;20647;-80
2021/01/24 11:23:12;;;;;;;5.05;2.47;;;3.80;42.60;;;;;;4848171;29;20218;-80
2021/01/24 11:25:39;;;;;;;4.47;2.15;;;3.90;43.30;;;;;;4850157;29;20278;-82
2021/01/24 11:28:06;;;;;;;3.15;1.83;;;3.90;42.90;;;;;;4874388;29;20232;-79
2021/01/24 11:30:33;;;;;;;3.42;2.25;;;3.90;42.90;;;;;;4882100;29;20245;-79
2021/01/24 11:33:00;;;;;;;3.72;2.47;;;4.00;43.00;;;;;;4897107;29;20311;-79
2021/01/24 11:35:26;;;;;;;2.60;2.13;;;4.10;42.90;;;;;;4927565;29;20221;-79
2021/01/24 11:37:53;;;;;;;5.18;2.50;;;4.10;43.00;;;;;;4967938;29;20226;-77
2021/01/24 11:40:19;;;;;;;2.50;2.25;;;4.00;43.00;;;;;;4972650;28;20218;-79
2021/01/24 11:42:46;;;;;;;4.00;2.80;;;4.00;43.40;;;;;;4962467;29;20201;-80
2021/01/24 11:45:14;;;;;;;4.80;3.17;;;4.00;43.50;;;;;;4957633;29;20313;-78
2021/01/24 11:47:40;;;;;;;3.78;2.78;;;3.90;44.20;;;;;;4964092;28;20392;-76
2021/01/24 11:50:07;;;;;;;3.92;2.45;;;3.90;44.30;;;;;;4961272;29;20216;-78
2021/01/24 11:52:34;;;;;;;2.60;2.40;;;3.90;44.60;;;;;;4963993;29;20292;-79
2021/01/24 11:55:00;;;;;;;3.67;2.58;;;3.90;44.70;;;;;;4968617;29;20194;-80
2021/01/24 11:57:27;;;;;;;5.47;2.40;;;4.00;44.20;;;;;;4970018;28;20237;-79
2021/01/24 11:59:53;;;;;;;4.85;2.53;;;4.00;44.60;;;;;;4964355;29;20273;-81
2021/01/24 12:02:21;;;;;;;3.08;2.78;;;4.20;43.70;;;;;;4961777;29;20214;-79
2021/01/24 12:04:48;;;;;;;2.97;2.67;;;4.20;43.70;;;;;;4959217;29;20214;-79
2021/01/24 12:07:14;;;;;;;3.00;2.80;;;4.30;44.00;;;;;;4962760;28;20482;-80
2021/01/24 12:09:41;;;;;;;6.03;2.70;;;4.30;43.20;;;;;;4963848;29;20226;-80
2021/01/24 12:12:08;;;;;;;3.35;2.63;;;4.30;42.10;;;;;;4961974;28;20206;-79
2021/01/24 12:14:34;;;;;;;3.70;2.92;;;4.30;41.80;;;;;;4967083;29;20222;-80
2021/01/24 12:17:01;;;;;;;2.42;2.22;;;4.10;41.70;;;;;;4963607;28;20242;-79
2021/01/24 12:20:06;;;;;;;4.38;2.25;;;4.20;41.40;;;;;;4962682;29;20225;-76
2021/01/24 12:23:05;;;;;;;2.60;2.08;;;4.20;40.90;;;;;;4941281;29;20266;-76
2021/01/24 12:25:32;;;;;;;3.25;2.10;;;4.20;40.40;;;;;;4942214;29;20206;-80
2021/01/24 12:32:39;;;;;;;2.33;2.05;;;4.20;40.20;;;;;;4924676;29;20195;-77
2021/01/24 12:42:16;;;;;;;4.45;2.50;;;4.50;39.40;;;;;;4809915;29;20246;-79
2021/01/24 12:45:07;;;;;;;3.22;2.88;;;4.40;40.40;;;;;;4813182;29;20627;-76
2021/01/24 12:47:33;;;;;;;2.78;2.50;;;4.40;40.60;;;;;;4825639;29;20413;-79
2021/01/24 12:50:00;;;;;;;3.15;2.65;;;4.50;41.60;;;;;;4828051;29;20218;-82
2021/01/24 12:52:26;;;;;;;3.60;2.53;;;4.60;40.70;;;;;;4834592;29;20222;-82
2021/01/24 12:54:53;;;;;;;3.85;2.90;;;4.40;41.20;;;;;;4833769;29;20764;-80
2021/01/24 12:57:21;;;;;;;3.55;2.80;;;4.50;40.80;;;;;;4834158;29;20691;-81
2021/01/24 12:59:47;;;;;;;4.30;2.83;;;4.40;41.50;;;;;;4831279;29;20207;-80
2021/01/24 13:02:14;;;;;;;3.13;2.70;;;4.50;41.00;;;;;;4828456;29;20230;-81
2021/01/24 13:05:23;;;;;;;3.75;2.78;;;4.50;40.60;;;;;;4827448;29;20215;-76
2021/01/24 13:08:38;;;;;;;4.43;2.80;;;4.60;40.50;;;;;;4827486;29;20238;-76
2021/01/24 13:11:47;;;;;;;3.90;2.03;;;4.60;40.70;;;;;;4811053;29;20219;-75
2021/01/24 13:14:26;;;;;;;3.03;2.20;;;4.60;40.30;;;;;;4848460;29;20235;-78
2021/01/24 13:16:53;;;;;;;3.60;2.35;;;4.50;39.90;;;;;;4943723;29;20199;-80
2021/01/24 13:19:19;;;;;;;2.72;1.95;;;4.40;40.00;;;;;;4950465;29;20230;-78
2021/01/24 13:21:46;;;;;;;2.42;2.20;;;4.40;40.10;;;;;;4951177;29;20242;-80
2021/01/24 13:27:31;;;;;;;2.30;2.10;;;4.40;39.40;;;;;;4947939;29;20215;-76
2021/01/24 13:29:58;;;;;;;3.72;1.83;;;4.30;39.00;;;;;;4938506;29;20214;-77
2021/01/24 13:32:25;;;;;;;2.45;2.25;;;4.30;38.00;;;;;;4974560;29;20206;-79
2021/01/24 13:34:51;;;;;;;3.10;2.45;;;4.30;36.80;;;;;;4962776;29;20798;-79
2021/01/24 13:37:18;;;;;;;2.22;2.03;;;4.30;37.10;;;;;;4961626;28;20316;-81
2021/01/24 13:39:49;;;;;;;1.90;1.70;;;4.40;35.60;;;;;;4961618;29;20289;-78
2021/01/24 13:42:16;;;;;;;3.05;2.00;;;4.40;35.60;;;;;;4976058;28;20232;-80
2021/01/24 13:44:42;;;;;;;2.70;2.03;;;4.50;35.70;;;;;;4981731;28;20765;-79
2021/01/24 13:47:09;;;;;;;2.15;1.85;;;4.40;35.60;;;;;;4980422;28;20288;-81
2021/01/24 13:49:36;;;;;;;2.28;2.08;;;4.40;35.60;;;;;;4977713;28;20236;-79
2021/01/24 13:52:02;;;;;;;5.65;2.25;;;4.40;35.60;;;;;;4976115;28;20296;-80
2021/01/24 13:54:29;;;;;;;3.35;2.15;;;4.20;35.50;;;;;;4976543;28;20322;-78
2021/01/24 13:56:55;;;;;;;6.38;2.20;;;4.20;35.50;;;;;;4978775;28;20233;-79
2021/01/24 13:59:21;;;;;;;2.03;1.70;;;4.40;35.60;;;;;;4994474;28;20336;-79
2021/01/24 14:01:48;;;;;;;2.10;1.90;;;4.30;35.50;;;;;;4993852;28;20220;-80